Main page
METAR-TAF:

METAR-TAF

Airports :

Dundee Airport

Dundee, Scotland

latitude: 56-27N, longitude: 003-01W, elevation: 4 m

Current weather observation

The report was made 54 minutes ago, at 19:50 UTC
Wind 8 kt from the Northwest
Temperature 16°C
Humidity 55%
Pressure 1028 hPa
Visibility 10 km or more
Few clouds at a height of 4000 ft

METAR: EGPN 221950Z 32008KT 9999 FEW040 16/07 Q1028

Time: 21:44 (20:44 UTC)

Forecast

The report was made 3 hours and 41 minutes ago, at 17:03 UTC
Forecast valid from 22 at 18 UTC to 22 at 20 UTC
Wind 8 kt from the West/Northwest
Visibility 10 km or more
Few clouds at a height of 4000 ft

TAF: EGPN 221703Z 2218/2220 30008KT 9999 FEW040

Weather observations and forecasts of more than 4000 airports (METAR and TAF reports).

The available stations are represented by yellow and red dots on the map.

Hover mouse over dot to see the name of the station.

Then click to see weather observations and forecasts.

To change the map : click on the green buttons with a black cross to zoom in, on the green button with a dash to zoom out, or on the green arrows for adjacent maps.


METAR-TAF: